sensor_id;sensor_type;location;lat;lon;timestamp;pressure;altitude;pressure_sealevel;temperature;humidity
12791;BME280;6459;42.678;23.310;2022-08-19T00:01:55;53758.50;;;-144.00;46.58
12791;BME280;6459;42.678;23.310;2022-08-19T00:04:27;53750.53;;;-144.00;46.98
12791;BME280;6459;42.678;23.310;2022-08-19T00:06:58;53778.44;;;-144.00;46.93
12791;BME280;6459;42.678;23.310;2022-08-19T00:09:26;53780.41;;;-144.00;46.89
12791;BME280;6459;42.678;23.310;2022-08-19T00:11:56;53754.53;;;-144.00;46.98
12791;BME280;6459;42.678;23.310;2022-08-19T00:14:25;53790.38;;;-144.00;47.17
12791;BME280;6459;42.678;23.310;2022-08-19T00:16:54;53772.44;;;-144.00;47.30
12791;BME280;6459;42.678;23.310;2022-08-19T00:19:24;53778.44;;;-144.00;46.78
12791;BME280;6459;42.678;23.310;2022-08-19T00:21:52;53784.41;;;-144.00;46.98
12791;BME280;6459;42.678;23.310;2022-08-19T00:24:24;53790.38;;;-144.00;46.71
12791;BME280;6459;42.678;23.310;2022-08-19T00:26:55;53766.47;;;-144.00;46.86
12791;BME280;6459;42.678;23.310;2022-08-19T00:29:44;53722.66;;;-144.00;46.99
12791;BME280;6459;42.678;23.310;2022-08-19T00:32:18;53778.44;;;-144.00;46.56
12791;BME280;6459;42.678;23.310;2022-08-19T00:34:47;53746.56;;;-144.00;45.91
12791;BME280;6459;42.678;23.310;2022-08-19T00:37:15;53786.41;;;-144.00;45.86
12791;BME280;6459;42.678;23.310;2022-08-19T00:39:45;53776.44;;;-144.00;45.66
12791;BME280;6459;42.678;23.310;2022-08-19T00:42:15;53750.53;;;-144.00;45.45
12791;BME280;6459;42.678;23.310;2022-08-19T00:44:43;53754.53;;;-144.00;45.46
12791;BME280;6459;42.678;23.310;2022-08-19T00:47:12;53774.44;;;-144.00;45.40
12791;BME280;6459;42.678;23.310;2022-08-19T00:49:45;53762.50;;;-144.00;46.78
12791;BME280;6459;42.678;23.310;2022-08-19T00:52:20;53790.38;;;-144.00;47.67
12791;BME280;6459;42.678;23.310;2022-08-19T00:54:51;53770.47;;;-144.00;47.58
12791;BME280;6459;42.678;23.310;2022-08-19T00:57:24;53776.44;;;-144.00;46.68
12791;BME280;6459;42.678;23.310;2022-08-19T00:59:56;53782.41;;;-144.00;46.26
12791;BME280;6459;42.678;23.310;2022-08-19T01:02:29;53772.44;;;-144.00;47.62
12791;BME280;6459;42.678;23.310;2022-08-19T01:05:02;53784.41;;;-144.00;48.45
12791;BME280;6459;42.678;23.310;2022-08-19T01:07:30;53758.50;;;-144.00;48.91
12791;BME280;6459;42.678;23.310;2022-08-19T01:10:07;53778.44;;;-144.00;48.89
12791;BME280;6459;42.678;23.310;2022-08-19T01:12:36;53796.34;;;-144.00;49.01
12791;BME280;6459;42.678;23.310;2022-08-19T01:15:06;53802.34;;;-144.00;48.58
12791;BME280;6459;42.678;23.310;2022-08-19T01:17:36;53804.31;;;-144.00;48.16
12791;BME280;6459;42.678;23.310;2022-08-19T01:20:10;53818.28;;;-144.00;47.23
12791;BME280;6459;42.678;23.310;2022-08-19T01:22:43;53810.31;;;-144.00;47.34
12791;BME280;6459;42.678;23.310;2022-08-19T01:25:13;53828.22;;;-144.00;47.38
12791;BME280;6459;42.678;23.310;2022-08-19T01:27:45;53836.19;;;-144.00;48.02
12791;BME280;6459;42.678;23.310;2022-08-19T01:30:17;53804.31;;;-144.00;48.12
12791;BME280;6459;42.678;23.310;2022-08-19T01:32:46;53810.31;;;-144.00;48.09
12791;BME280;6459;42.678;23.310;2022-08-19T01:35:14;53808.31;;;-144.00;48.40
12791;BME280;6459;42.678;23.310;2022-08-19T01:37:49;53814.28;;;-144.00;48.20
12791;BME280;6459;42.678;23.310;2022-08-19T01:40:24;53824.25;;;-144.00;48.12
12791;BME280;6459;42.678;23.310;2022-08-19T01:42:54;53830.22;;;-144.00;48.59
12791;BME280;6459;42.678;23.310;2022-08-19T01:45:24;53790.38;;;-144.00;49.53
12791;BME280;6459;42.678;23.310;2022-08-19T01:47:54;53842.19;;;-144.00;49.95
12791;BME280;6459;42.678;23.310;2022-08-19T01:50:29;53838.19;;;-144.00;50.05
12791;BME280;6459;42.678;23.310;2022-08-19T01:53:04;53834.22;;;-144.00;50.29
12791;BME280;6459;42.678;23.310;2022-08-19T01:55:35;53872.06;;;-144.00;50.74
12791;BME280;6459;42.678;23.310;2022-08-19T01:58:11;53828.22;;;-144.00;50.67
12791;BME280;6459;42.678;23.310;2022-08-19T02:00:40;53846.16;;;-144.00;50.94
12791;BME280;6459;42.678;23.310;2022-08-19T02:03:09;53854.13;;;-144.00;50.88
12791;BME280;6459;42.678;23.310;2022-08-19T02:05:38;53844.16;;;-144.00;51.06
12791;BME280;6459;42.678;23.310;2022-08-19T02:08:08;53832.22;;;-144.00;50.89
12791;BME280;6459;42.678;23.310;2022-08-19T02:10:40;53882.03;;;-144.00;51.30
12791;BME280;6459;42.678;23.310;2022-08-19T02:13:09;53810.31;;;-144.00;51.11
12791;BME280;6459;42.678;23.310;2022-08-19T02:15:38;53842.19;;;-144.00;51.39
12791;BME280;6459;42.678;23.310;2022-08-19T02:18:06;53842.19;;;-144.00;51.19
12791;BME280;6459;42.678;23.310;2022-08-19T02:20:35;53840.19;;;-144.00;50.81
12791;BME280;6459;42.678;23.310;2022-08-19T02:23:04;53846.16;;;-144.00;49.89
12791;BME280;6459;42.678;23.310;2022-08-19T02:25:45;53826.25;;;-144.00;50.01
12791;BME280;6459;42.678;23.310;2022-08-19T02:28:13;53806.31;;;-144.00;50.06
12791;BME280;6459;42.678;23.310;2022-08-19T02:30:45;53850.16;;;-144.00;50.04
12791;BME280;6459;42.678;23.310;2022-08-19T02:33:15;53856.13;;;-144.00;50.49
12791;BME280;6459;42.678;23.310;2022-08-19T02:35:43;53838.19;;;-144.00;50.54
12791;BME280;6459;42.678;23.310;2022-08-19T02:38:12;53818.28;;;-144.00;50.59
12791;BME280;6459;42.678;23.310;2022-08-19T02:40:55;53854.13;;;-144.00;50.86
12791;BME280;6459;42.678;23.310;2022-08-19T02:43:29;53834.22;;;-144.00;50.64
12791;BME280;6459;42.678;23.310;2022-08-19T02:46:00;53834.22;;;-144.00;50.29
12791;BME280;6459;42.678;23.310;2022-08-19T02:48:28;53844.16;;;-144.00;50.07
12791;BME280;6459;42.678;23.310;2022-08-19T02:50:57;53836.19;;;-144.00;49.94
12791;BME280;6459;42.678;23.310;2022-08-19T02:53:27;53818.28;;;-144.00;49.78
12791;BME280;6459;42.678;23.310;2022-08-19T02:55:57;53806.31;;;-144.00;49.88
12791;BME280;6459;42.678;23.310;2022-08-19T02:58:25;53846.16;;;-144.00;50.23
12791;BME280;6459;42.678;23.310;2022-08-19T03:00:56;53846.16;;;-144.00;51.20
12791;BME280;6459;42.678;23.310;2022-08-19T03:03:24;53818.28;;;-144.00;51.84
12791;BME280;6459;42.678;23.310;2022-08-19T03:06:03;53822.25;;;-144.00;51.41
12791;BME280;6459;42.678;23.310;2022-08-19T03:08:32;53830.22;;;-144.00;52.00
12791;BME280;6459;42.678;23.310;2022-08-19T03:11:02;53838.19;;;-144.00;52.19
12791;BME280;6459;42.678;23.310;2022-08-19T03:13:30;53862.09;;;-144.00;52.42
12791;BME280;6459;42.678;23.310;2022-08-19T03:15:58;53917.88;;;-144.00;53.08
12791;BME280;6459;42.678;23.310;2022-08-19T03:18:27;53882.03;;;-144.00;52.62
12791;BME280;6459;42.678;23.310;2022-08-19T03:20:55;53860.09;;;-144.00;52.83
12791;BME280;6459;42.678;23.310;2022-08-19T03:23:23;53880.03;;;-144.00;53.20
12791;BME280;6459;42.678;23.310;2022-08-19T03:25:53;53893.97;;;-144.00;53.52
12791;BME280;6459;42.678;23.310;2022-08-19T03:28:33;53884.00;;;-144.00;53.81
12791;BME280;6459;42.678;23.310;2022-08-19T03:31:03;53891.97;;;-144.00;54.29
12791;BME280;6459;42.678;23.310;2022-08-19T03:33:52;53891.97;;;-144.00;54.60
12791;BME280;6459;42.678;23.310;2022-08-19T03:36:23;53893.97;;;-144.00;55.16
12791;BME280;6459;42.678;23.310;2022-08-19T03:38:55;53888.00;;;-144.00;55.51
12791;BME280;6459;42.678;23.310;2022-08-19T03:41:27;53921.88;;;-144.00;55.14
12791;BME280;6459;42.678;23.310;2022-08-19T03:44:13;53890.00;;;-144.00;55.66
12791;BME280;6459;42.678;23.310;2022-08-19T03:46:45;53858.13;;;-144.00;55.12
12791;BME280;6459;42.678;23.310;2022-08-19T03:49:14;53832.22;;;-144.00;54.78
12791;BME280;6459;42.678;23.310;2022-08-19T03:51:45;53890.00;;;-144.00;54.30
12791;BME280;6459;42.678;23.310;2022-08-19T03:54:25;53864.09;;;-144.00;54.55
12791;BME280;6459;42.678;23.310;2022-08-19T03:56:55;53878.03;;;-144.00;54.04
12791;BME280;6459;42.678;23.310;2022-08-19T03:59:27;53880.03;;;-144.00;53.66
12791;BME280;6459;42.678;23.310;2022-08-19T04:02:00;53872.06;;;-144.00;54.04
12791;BME280;6459;42.678;23.310;2022-08-19T04:04:29;53842.19;;;-144.00;53.69
12791;BME280;6459;42.678;23.310;2022-08-19T04:06:58;53878.03;;;-144.00;53.13
12791;BME280;6459;42.678;23.310;2022-08-19T04:09:26;53862.09;;;-144.00;53.77
12791;BME280;6459;42.678;23.310;2022-08-19T04:11:57;53854.13;;;-144.00;54.02
12791;BME280;6459;42.678;23.310;2022-08-19T04:14:28;53860.09;;;-144.00;54.18
12791;BME280;6459;42.678;23.310;2022-08-19T04:16:58;53854.13;;;-144.00;53.82
12791;BME280;6459;42.678;23.310;2022-08-19T04:19:29;53880.03;;;-144.00;54.04
12791;BME280;6459;42.678;23.310;2022-08-19T04:21:57;53866.09;;;-144.00;54.17
12791;BME280;6459;42.678;23.310;2022-08-19T04:24:26;53862.09;;;-144.00;54.16
12791;BME280;6459;42.678;23.310;2022-08-19T04:26:54;53846.16;;;-144.00;54.24
12791;BME280;6459;42.678;23.310;2022-08-19T04:29:24;53788.38;;;-144.00;53.30
12791;BME280;6459;42.678;23.310;2022-08-19T04:31:56;53746.56;;;-144.00;50.96
12791;BME280;6459;42.678;23.310;2022-08-19T04:34:27;53750.53;;;-144.00;49.11
12791;BME280;6459;42.678;23.310;2022-08-19T04:36:58;53698.75;;;-144.00;47.17
12791;BME280;6459;42.678;23.310;2022-08-19T04:39:29;53627.03;;;-144.00;45.69
12791;BME280;6459;42.678;23.310;2022-08-19T04:42:12;53650.94;;;-144.00;43.90
12791;BME280;6459;42.678;23.310;2022-08-19T04:44:59;53567.28;;;-144.00;41.96
12791;BME280;6459;42.678;23.310;2022-08-19T04:47:28;53567.28;;;-144.00;40.87
12791;BME280;6459;42.678;23.310;2022-08-19T04:50:17;53567.28;;;-144.00;39.40
12791;BME280;6459;42.678;23.310;2022-08-19T04:52:46;53521.44;;;-144.00;38.42
12791;BME280;6459;42.678;23.310;2022-08-19T04:55:14;53559.31;;;-144.00;38.33
12791;BME280;6459;42.678;23.310;2022-08-19T04:57:44;53497.56;;;-144.00;38.10
12791;BME280;6459;42.678;23.310;2022-08-19T05:00:13;53507.50;;;-144.00;37.44
12791;BME280;6459;42.678;23.310;2022-08-19T05:02:43;53507.50;;;-144.00;36.94
12791;BME280;6459;42.678;23.310;2022-08-19T05:05:11;53463.69;;;-144.00;36.37
12791;BME280;6459;42.678;23.310;2022-08-19T05:07:40;53487.59;;;-144.00;36.18
12791;BME280;6459;42.678;23.310;2022-08-19T05:10:09;53523.44;;;-144.00;35.72
12791;BME280;6459;42.678;23.310;2022-08-19T05:12:39;53507.50;;;-144.00;36.60
12791;BME280;6459;42.678;23.310;2022-08-19T05:15:08;53551.34;;;-144.00;37.40
12791;BME280;6459;42.678;23.310;2022-08-19T05:17:36;53579.22;;;-144.00;39.13
12791;BME280;6459;42.678;23.310;2022-08-19T05:20:08;53619.06;;;-144.00;40.35
12791;BME280;6459;42.678;23.310;2022-08-19T05:22:54;53654.91;;;-144.00;41.33
12791;BME280;6459;42.678;23.310;2022-08-19T05:25:22;53656.91;;;-144.00;41.64
12791;BME280;6459;42.678;23.310;2022-08-19T05:27:52;53629.03;;;-144.00;42.42
12791;BME280;6459;42.678;23.310;2022-08-19T05:30:20;53688.78;;;-144.00;43.37
12791;BME280;6459;42.678;23.310;2022-08-19T05:33:07;53722.66;;;-144.00;43.82
12791;BME280;6459;42.678;23.310;2022-08-19T05:35:40;53696.75;;;-144.00;43.83
12791;BME280;6459;42.678;23.310;2022-08-19T05:38:08;53710.69;;;-144.00;44.28
12791;BME280;6459;42.678;23.310;2022-08-19T05:40:38;53702.72;;;-144.00;43.92
12791;BME280;6459;42.678;23.310;2022-08-19T05:43:08;53702.72;;;-144.00;43.93
12791;BME280;6459;42.678;23.310;2022-08-19T05:45:38;53706.72;;;-144.00;43.88
12791;BME280;6459;42.678;23.310;2022-08-19T05:48:08;53694.75;;;-144.00;44.09
12791;BME280;6459;42.678;23.310;2022-08-19T05:50:41;53730.63;;;-144.00;44.70
12791;BME280;6459;42.678;23.310;2022-08-19T05:53:19;53728.63;;;-144.00;44.69
12791;BME280;6459;42.678;23.310;2022-08-19T05:55:47;53672.84;;;-144.00;44.60
12791;BME280;6459;42.678;23.310;2022-08-19T05:58:15;53734.59;;;-144.00;44.53
12791;BME280;6459;42.678;23.310;2022-08-19T06:00:48;53710.69;;;-144.00;44.52
12791;BME280;6459;42.678;23.310;2022-08-19T06:03:16;53750.53;;;-144.00;45.15
12791;BME280;6459;42.678;23.310;2022-08-19T06:05:46;53730.63;;;-144.00;45.23
12791;BME280;6459;42.678;23.310;2022-08-19T06:08:18;53746.56;;;-144.00;45.07
12791;BME280;6459;42.678;23.310;2022-08-19T06:11:12;53720.66;;;-144.00;44.87
12791;BME280;6459;42.678;23.310;2022-08-19T06:13:40;53694.75;;;-144.00;44.70
12791;BME280;6459;42.678;23.310;2022-08-19T06:16:08;53718.66;;;-144.00;44.37
12791;BME280;6459;42.678;23.310;2022-08-19T06:18:37;53698.75;;;-144.00;44.20
12791;BME280;6459;42.678;23.310;2022-08-19T06:21:06;53694.75;;;-144.00;44.35
12791;BME280;6459;42.678;23.310;2022-08-19T06:23:34;53714.69;;;-144.00;44.68
12791;BME280;6459;42.678;23.310;2022-08-19T06:26:03;53702.72;;;-144.00;44.06
12791;BME280;6459;42.678;23.310;2022-08-19T06:28:31;53712.69;;;-144.00;43.63
12791;BME280;6459;42.678;23.310;2022-08-19T06:31:06;53702.72;;;-144.00;44.08
12791;BME280;6459;42.678;23.310;2022-08-19T06:33:34;53714.69;;;-144.00;43.91
12791;BME280;6459;42.678;23.310;2022-08-19T06:36:07;53694.75;;;-144.00;43.94
12791;BME280;6459;42.678;23.310;2022-08-19T06:38:35;53694.75;;;-144.00;43.33
12791;BME280;6459;42.678;23.310;2022-08-19T06:41:04;53678.81;;;-144.00;43.48
12791;BME280;6459;42.678;23.310;2022-08-19T06:43:33;53682.81;;;-144.00;43.46
12791;BME280;6459;42.678;23.310;2022-08-19T06:46:10;53662.88;;;-144.00;43.35
12791;BME280;6459;42.678;23.310;2022-08-19T06:48:40;53678.81;;;-144.00;42.80
12791;BME280;6459;42.678;23.310;2022-08-19T06:51:13;53666.88;;;-144.00;42.91
12791;BME280;6459;42.678;23.310;2022-08-19T06:53:45;53678.81;;;-144.00;43.06
12791;BME280;6459;42.678;23.310;2022-08-19T06:56:14;53646.94;;;-144.00;43.09
12791;BME280;6459;42.678;23.310;2022-08-19T06:58:43;53654.91;;;-144.00;42.56
12791;BME280;6459;42.678;23.310;2022-08-19T07:01:13;53684.81;;;-144.00;42.74
12791;BME280;6459;42.678;23.310;2022-08-19T07:03:41;53674.84;;;-144.00;43.21
12791;BME280;6459;42.678;23.310;2022-08-19T07:06:13;53640.97;;;-144.00;43.03
12791;BME280;6459;42.678;23.310;2022-08-19T07:09:04;53658.91;;;-144.00;42.86
12791;BME280;6459;42.678;23.310;2022-08-19T07:11:32;53670.84;;;-144.00;42.61
12791;BME280;6459;42.678;23.310;2022-08-19T07:14:01;53615.06;;;-144.00;43.21
12791;BME280;6459;42.678;23.310;2022-08-19T07:16:30;53656.91;;;-144.00;42.64
12791;BME280;6459;42.678;23.310;2022-08-19T07:18:58;53662.88;;;-144.00;41.97
12791;BME280;6459;42.678;23.310;2022-08-19T07:21:43;53654.91;;;-144.00;42.04
12791;BME280;6459;42.678;23.310;2022-08-19T07:24:11;53688.78;;;-144.00;41.81
12791;BME280;6459;42.678;23.310;2022-08-19T07:26:41;53654.91;;;-144.00;42.27
12791;BME280;6459;42.678;23.310;2022-08-19T07:29:11;53585.19;;;-144.00;42.07
12791;BME280;6459;42.678;23.310;2022-08-19T07:31:39;53629.03;;;-144.00;41.55
12791;BME280;6459;42.678;23.310;2022-08-19T07:34:12;53635.00;;;-144.00;41.26
12791;BME280;6459;42.678;23.310;2022-08-19T07:36:44;53654.91;;;-144.00;41.69
12791;BME280;6459;42.678;23.310;2022-08-19T07:39:15;53654.91;;;-144.00;41.61
12791;BME280;6459;42.678;23.310;2022-08-19T07:41:44;53607.09;;;-144.00;41.10
12791;BME280;6459;42.678;23.310;2022-08-19T07:44:14;53629.03;;;-144.00;40.87
12791;BME280;6459;42.678;23.310;2022-08-19T07:46:45;53633.00;;;-144.00;40.44
12791;BME280;6459;42.678;23.310;2022-08-19T07:49:20;53595.16;;;-144.00;40.21
12791;BME280;6459;42.678;23.310;2022-08-19T07:51:52;53609.09;;;-144.00;40.52
12791;BME280;6459;42.678;23.310;2022-08-19T07:54:22;53611.09;;;-144.00;40.22
12791;BME280;6459;42.678;23.310;2022-08-19T07:56:51;53601.13;;;-144.00;40.04
12791;BME280;6459;42.678;23.310;2022-08-19T07:59:20;53607.09;;;-144.00;40.08
12791;BME280;6459;42.678;23.310;2022-08-19T08:01:49;53547.34;;;-144.00;39.65
12791;BME280;6459;42.678;23.310;2022-08-19T08:04:18;53581.22;;;-144.00;39.10
12791;BME280;6459;42.678;23.310;2022-08-19T08:07:06;53571.25;;;-144.00;39.15
12791;BME280;6459;42.678;23.310;2022-08-19T08:09:57;53597.16;;;-144.00;38.83
12791;BME280;6459;42.678;23.310;2022-08-19T08:12:34;53577.22;;;-144.00;38.83
12791;BME280;6459;42.678;23.310;2022-08-19T08:15:07;53527.44;;;-144.00;38.80
12791;BME280;6459;42.678;23.310;2022-08-19T08:17:38;53571.25;;;-144.00;38.68
12791;BME280;6459;42.678;23.310;2022-08-19T08:20:17;53571.25;;;-144.00;38.73
12791;BME280;6459;42.678;23.310;2022-08-19T08:22:47;53545.34;;;-144.00;38.23
12791;BME280;6459;42.678;23.310;2022-08-19T08:25:35;53555.31;;;-144.00;38.23
12791;BME280;6459;42.678;23.310;2022-08-19T08:28:04;53601.13;;;-144.00;37.41
12791;BME280;6459;42.678;23.310;2022-08-19T08:30:43;53549.34;;;-144.00;37.52
12791;BME280;6459;42.678;23.310;2022-08-19T08:33:13;53523.44;;;-144.00;37.32
12791;BME280;6459;42.678;23.310;2022-08-19T08:35:47;53565.28;;;-144.00;37.01
12791;BME280;6459;42.678;23.310;2022-08-19T08:38:17;53533.41;;;-144.00;36.79
12791;BME280;6459;42.678;23.310;2022-08-19T08:40:48;53527.44;;;-144.00;36.73
12791;BME280;6459;42.678;23.310;2022-08-19T08:43:24;53515.47;;;-144.00;36.36
12791;BME280;6459;42.678;23.310;2022-08-19T08:46:01;53535.41;;;-144.00;36.38
12791;BME280;6459;42.678;23.310;2022-08-19T08:48:37;53503.53;;;-144.00;36.45
12791;BME280;6459;42.678;23.310;2022-08-19T08:51:10;53507.50;;;-144.00;35.92
12791;BME280;6459;42.678;23.310;2022-08-19T08:53:49;53537.38;;;-144.00;35.85
12791;BME280;6459;42.678;23.310;2022-08-19T08:56:22;53503.53;;;-144.00;35.64
12791;BME280;6459;42.678;23.310;2022-08-19T08:58:56;53507.50;;;-144.00;35.42
12791;BME280;6459;42.678;23.310;2022-08-19T09:01:26;53515.47;;;-144.00;35.40
12791;BME280;6459;42.678;23.310;2022-08-19T09:03:56;53469.66;;;-144.00;35.18
12791;BME280;6459;42.678;23.310;2022-08-19T09:06:32;53499.53;;;-144.00;34.81
12791;BME280;6459;42.678;23.310;2022-08-19T09:09:14;53487.59;;;-144.00;34.52
12791;BME280;6459;42.678;23.310;2022-08-19T09:11:52;53473.66;;;-144.00;34.30
12791;BME280;6459;42.678;23.310;2022-08-19T09:14:34;53483.59;;;-144.00;33.61
12791;BME280;6459;42.678;23.310;2022-08-19T09:17:17;53491.56;;;-144.00;33.34
12791;BME280;6459;42.678;23.310;2022-08-19T09:19:54;53475.63;;;-144.00;32.65
12791;BME280;6459;42.678;23.310;2022-08-19T09:22:28;53475.63;;;-144.00;32.51
12791;BME280;6459;42.678;23.310;2022-08-19T09:24:57;53461.69;;;-144.00;32.28
12791;BME280;6459;42.678;23.310;2022-08-19T09:27:26;53483.59;;;-144.00;31.78
12791;BME280;6459;42.678;23.310;2022-08-19T09:30:11;53491.56;;;-144.00;31.90
12791;BME280;6459;42.678;23.310;2022-08-19T09:32:51;53499.53;;;-144.00;32.01
12791;BME280;6459;42.678;23.310;2022-08-19T09:35:36;53483.59;;;-144.00;31.42
12791;BME280;6459;42.678;23.310;2022-08-19T09:38:18;53447.75;;;-144.00;31.38
12791;BME280;6459;42.678;23.310;2022-08-19T09:41:05;53475.63;;;-144.00;31.38
12791;BME280;6459;42.678;23.310;2022-08-19T09:43:35;53417.88;;;-144.00;31.35
12791;BME280;6459;42.678;23.310;2022-08-19T09:46:10;53437.78;;;-144.00;31.00
12791;BME280;6459;42.678;23.310;2022-08-19T09:48:45;53419.88;;;-144.00;31.03
12791;BME280;6459;42.678;23.310;2022-08-19T09:51:16;53419.88;;;-144.00;30.22
12791;BME280;6459;42.678;23.310;2022-08-19T09:53:48;53415.88;;;-144.00;30.27
12791;BME280;6459;42.678;23.310;2022-08-19T09:56:21;53417.88;;;-144.00;30.15
12791;BME280;6459;42.678;23.310;2022-08-19T09:58:50;53421.84;;;-144.00;30.60
12791;BME280;6459;42.678;23.310;2022-08-19T10:01:20;53415.88;;;-144.00;29.62
12791;BME280;6459;42.678;23.310;2022-08-19T10:03:52;53415.88;;;-144.00;29.80
12791;BME280;6459;42.678;23.310;2022-08-19T10:06:22;53429.81;;;-144.00;29.87
12791;BME280;6459;42.678;23.310;2022-08-19T10:09:11;53393.97;;;-144.00;29.46
12791;BME280;6459;42.678;23.310;2022-08-19T10:11:42;53419.88;;;-144.00;29.83
12791;BME280;6459;42.678;23.310;2022-08-19T10:14:20;53439.78;;;-144.00;29.80
12791;BME280;6459;42.678;23.310;2022-08-19T10:16:50;53395.97;;;-144.00;29.90
12791;BME280;6459;42.678;23.310;2022-08-19T10:19:18;53417.88;;;-144.00;30.38
12791;BME280;6459;42.678;23.310;2022-08-19T10:21:55;53411.91;;;-144.00;29.93
12791;BME280;6459;42.678;23.310;2022-08-19T10:24:35;53423.84;;;-144.00;30.10
12791;BME280;6459;42.678;23.310;2022-08-19T10:27:08;53372.06;;;-144.00;29.86
12791;BME280;6459;42.678;23.310;2022-08-19T10:29:40;53376.03;;;-144.00;29.76
12791;BME280;6459;42.678;23.310;2022-08-19T10:32:12;53431.81;;;-144.00;29.89
12791;BME280;6459;42.678;23.310;2022-08-19T10:34:40;53395.97;;;-144.00;29.73
12791;BME280;6459;42.678;23.310;2022-08-19T10:37:15;53403.94;;;-144.00;29.57
12791;BME280;6459;42.678;23.310;2022-08-19T10:39:54;53441.78;;;-144.00;29.79
12791;BME280;6459;42.678;23.310;2022-08-19T10:42:24;53425.84;;;-144.00;29.72
12791;BME280;6459;42.678;23.310;2022-08-19T10:44:52;53431.81;;;-144.00;29.67
12791;BME280;6459;42.678;23.310;2022-08-19T10:47:22;53362.09;;;-144.00;29.69
12791;BME280;6459;42.678;23.310;2022-08-19T10:49:57;53380.03;;;-144.00;29.46
12791;BME280;6459;42.678;23.310;2022-08-19T10:52:45;53391.97;;;-144.00;29.94
12791;BME280;6459;42.678;23.310;2022-08-19T10:55:17;53384.00;;;-144.00;29.64
12791;BME280;6459;42.678;23.310;2022-08-19T10:58:10;53411.91;;;-144.00;29.56
12791;BME280;6459;42.678;23.310;2022-08-19T11:00:39;53386.00;;;-144.00;29.34
12791;BME280;6459;42.678;23.310;2022-08-19T11:03:10;53374.03;;;-144.00;29.34
12791;BME280;6459;42.678;23.310;2022-08-19T11:05:38;53378.03;;;-144.00;29.63
12791;BME280;6459;42.678;23.310;2022-08-19T11:08:07;53391.97;;;-144.00;29.39
12791;BME280;6459;42.678;23.310;2022-08-19T11:10:50;53388.00;;;-144.00;29.71
12791;BME280;6459;42.678;23.310;2022-08-19T11:13:21;53380.03;;;-144.00;29.59
12791;BME280;6459;42.678;23.310;2022-08-19T11:15:57;53368.06;;;-144.00;29.83
12791;BME280;6459;42.678;23.310;2022-08-19T11:18:32;53376.03;;;-144.00;29.55
12791;BME280;6459;42.678;23.310;2022-08-19T11:21:08;53378.03;;;-144.00;29.57
12791;BME280;6459;42.678;23.310;2022-08-19T11:23:40;53368.06;;;-144.00;29.14
12791;BME280;6459;42.678;23.310;2022-08-19T11:26:09;53372.06;;;-144.00;28.92
12791;BME280;6459;42.678;23.310;2022-08-19T11:28:39;53342.19;;;-144.00;29.21
12791;BME280;6459;42.678;23.310;2022-08-19T11:31:10;53370.06;;;-144.00;28.96
12791;BME280;6459;42.678;23.310;2022-08-19T11:33:39;53384.00;;;-144.00;29.09
12791;BME280;6459;42.678;23.310;2022-08-19T11:36:16;53358.13;;;-144.00;29.47
12791;BME280;6459;42.678;23.310;2022-08-19T11:38:45;53354.13;;;-144.00;29.52
12791;BME280;6459;42.678;23.310;2022-08-19T11:41:16;53378.03;;;-144.00;29.57
12791;BME280;6459;42.678;23.310;2022-08-19T11:43:46;53372.06;;;-144.00;29.22
12791;BME280;6459;42.678;23.310;2022-08-19T11:46:15;53360.09;;;-144.00;29.42
12791;BME280;6459;42.678;23.310;2022-08-19T11:48:44;53366.09;;;-144.00;28.99
12791;BME280;6459;42.678;23.310;2022-08-19T11:51:14;53356.13;;;-144.00;29.59
12791;BME280;6459;42.678;23.310;2022-08-19T11:53:42;53395.97;;;-144.00;29.24
12791;BME280;6459;42.678;23.310;2022-08-19T11:56:11;53360.09;;;-144.00;29.17
12791;BME280;6459;42.678;23.310;2022-08-19T11:58:40;53342.19;;;-144.00;28.79
12791;BME280;6459;42.678;23.310;2022-08-19T12:01:10;53348.16;;;-144.00;29.34
12791;BME280;6459;42.678;23.310;2022-08-19T12:03:39;53350.16;;;-144.00;29.32
12791;BME280;6459;42.678;23.310;2022-08-19T12:06:09;53342.19;;;-144.00;29.54
12791;BME280;6459;42.678;23.310;2022-08-19T12:08:39;53332.22;;;-144.00;29.17
12791;BME280;6459;42.678;23.310;2022-08-19T12:11:07;53336.19;;;-144.00;28.94
12791;BME280;6459;42.678;23.310;2022-08-19T12:13:36;53336.19;;;-144.00;28.91
12791;BME280;6459;42.678;23.310;2022-08-19T12:16:07;53360.09;;;-144.00;29.10
12791;BME280;6459;42.678;23.310;2022-08-19T12:18:44;53360.09;;;-144.00;28.96
12791;BME280;6459;42.678;23.310;2022-08-19T12:21:13;53360.09;;;-144.00;28.92
12791;BME280;6459;42.678;23.310;2022-08-19T12:23:42;53342.19;;;-144.00;29.01
12791;BME280;6459;42.678;23.310;2022-08-19T12:26:12;53334.22;;;-144.00;29.17
12791;BME280;6459;42.678;23.310;2022-08-19T12:28:40;53340.19;;;-144.00;28.94
12791;BME280;6459;42.678;23.310;2022-08-19T12:31:09;53348.16;;;-144.00;28.89
12791;BME280;6459;42.678;23.310;2022-08-19T12:33:41;53330.22;;;-144.00;28.57
12791;BME280;6459;42.678;23.310;2022-08-19T12:36:11;53336.19;;;-144.00;29.07
12791;BME280;6459;42.678;23.310;2022-08-19T12:38:43;53356.13;;;-144.00;29.01
12791;BME280;6459;42.678;23.310;2022-08-19T12:41:14;53322.25;;;-144.00;28.51
12791;BME280;6459;42.678;23.310;2022-08-19T12:43:54;53316.28;;;-144.00;28.92
12791;BME280;6459;42.678;23.310;2022-08-19T12:46:25;53314.28;;;-144.00;29.07
12791;BME280;6459;42.678;23.310;2022-08-19T12:49:08;53306.31;;;-144.00;28.89
12791;BME280;6459;42.678;23.310;2022-08-19T12:51:56;53312.31;;;-144.00;28.76
12791;BME280;6459;42.678;23.310;2022-08-19T12:54:24;53310.31;;;-144.00;28.66
12791;BME280;6459;42.678;23.310;2022-08-19T12:56:53;53296.38;;;-144.00;28.82
12791;BME280;6459;42.678;23.310;2022-08-19T12:59:29;53306.31;;;-144.00;28.67
12791;BME280;6459;42.678;23.310;2022-08-19T13:02:01;53344.16;;;-144.00;28.25
12791;BME280;6459;42.678;23.310;2022-08-19T13:04:41;53288.41;;;-144.00;28.05
12791;BME280;6459;42.678;23.310;2022-08-19T13:07:28;53332.22;;;-144.00;28.03